createdAt,value
2024-05-09T00:00:01.398Z,8.30
2024-05-09T00:01:01.399Z,8.34
2024-05-09T00:02:01.440Z,8.37
2024-05-09T00:03:01.409Z,8.29
2024-05-09T00:04:01.441Z,8.33
2024-05-09T00:05:01.515Z,8.37
2024-05-09T00:06:01.622Z,8.29
2024-05-09T00:07:01.309Z,8.26
2024-05-09T00:08:01.531Z,8.25
2024-05-09T00:09:01.304Z,8.22
2024-05-09T00:10:01.268Z,8.22
2024-05-09T00:11:01.383Z,8.10
2024-05-09T00:12:01.452Z,8.12
2024-05-09T00:13:01.255Z,8.04
2024-05-09T00:14:01.291Z,8.05
2024-05-09T00:15:01.235Z,8.10
2024-05-09T00:16:01.250Z,8.01
2024-05-09T00:17:01.242Z,8.00
2024-05-09T00:18:01.757Z,8.02
2024-05-09T00:19:01.235Z,8.01
2024-05-09T00:20:01.345Z,7.95
2024-05-09T00:21:01.405Z,7.97
2024-05-09T00:22:01.150Z,7.92
2024-05-09T00:23:01.317Z,7.93
2024-05-09T00:24:01.124Z,7.93
2024-05-09T00:25:01.129Z,7.89
2024-05-09T00:26:01.169Z,7.90
2024-05-09T00:27:01.101Z,7.82
2024-05-09T00:28:01.126Z,7.83
2024-05-09T00:29:01.108Z,7.86
2024-05-09T00:30:01.083Z,7.85
2024-05-09T00:31:01.048Z,7.86
2024-05-09T00:32:01.340Z,7.83
2024-05-09T00:33:01.356Z,7.85
2024-05-09T00:34:01.438Z,7.80
2024-05-09T00:35:01.069Z,7.82
2024-05-09T00:36:01.009Z,7.80
2024-05-09T00:37:01.001Z,7.75
2024-05-09T00:38:01.300Z,7.77
2024-05-09T00:39:00.962Z,7.83
2024-05-09T00:40:00.971Z,7.74
2024-05-09T00:41:01.181Z,7.77
2024-05-09T00:42:00.953Z,7.72
2024-05-09T00:43:00.943Z,7.79
2024-05-09T00:44:00.958Z,7.72
2024-05-09T00:45:00.904Z,7.74
2024-05-09T00:46:00.924Z,7.68
2024-05-09T00:47:00.937Z,7.68
2024-05-09T00:48:01.253Z,7.71
2024-05-09T00:49:00.951Z,7.69
2024-05-09T00:50:00.919Z,7.61
2024-05-09T00:51:00.947Z,7.67
2024-05-09T00:52:00.833Z,7.68
2024-05-09T00:53:00.911Z,7.60
2024-05-09T00:54:00.821Z,7.55
2024-05-09T00:55:00.795Z,7.57
2024-05-09T00:56:00.850Z,7.57
2024-05-09T00:57:00.771Z,7.50
2024-05-09T00:58:00.797Z,7.53
2024-05-09T00:59:00.813Z,7.52
2024-05-09T01:00:00.757Z,7.53
2024-05-09T01:01:00.769Z,7.53
2024-05-09T01:02:00.867Z,7.48
2024-05-09T01:03:00.938Z,7.55
2024-05-09T01:04:00.778Z,7.53
2024-05-09T01:05:00.846Z,7.48
2024-05-09T01:06:00.741Z,7.53
2024-05-09T01:07:00.709Z,7.48
2024-05-09T01:08:00.738Z,7.42
2024-05-09T01:09:00.698Z,7.37
2024-05-09T01:10:00.652Z,7.46
2024-05-09T01:11:00.793Z,7.35
2024-05-09T01:12:00.887Z,7.37
2024-05-09T01:13:00.659Z,7.35
2024-05-09T01:14:00.703Z,7.35
2024-05-09T01:15:00.652Z,7.23
2024-05-09T01:16:00.579Z,7.27
2024-05-09T01:17:00.590Z,7.24
2024-05-09T01:18:00.813Z,7.21
2024-05-09T01:19:00.661Z,7.17
2024-05-09T01:20:00.632Z,7.10
2024-05-09T01:21:00.575Z,7.12
2024-05-09T01:22:00.522Z,7.09
2024-05-09T01:23:00.541Z,7.09
2024-05-09T01:24:00.497Z,7.15
2024-05-09T01:25:00.490Z,7.12
2024-05-09T01:26:00.622Z,7.06
2024-05-09T01:27:00.448Z,7.03
2024-05-09T01:28:00.476Z,7.09
2024-05-09T01:29:00.540Z,7.05
2024-05-09T01:30:00.473Z,7.06
2024-05-09T01:31:00.409Z,7.05
2024-05-09T01:32:00.509Z,6.99
2024-05-09T01:33:00.575Z,6.97
2024-05-09T01:34:00.493Z,6.99
2024-05-09T01:35:00.463Z,7.03
2024-05-09T01:36:00.352Z,7.12
2024-05-09T01:37:00.376Z,7.07
2024-05-09T01:38:00.459Z,7.10
2024-05-09T01:39:00.319Z,7.07
2024-05-09T01:40:00.326Z,7.12
2024-05-09T01:41:00.384Z,7.16
2024-05-09T01:42:00.304Z,7.25
2024-05-09T01:43:00.295Z,7.25
2024-05-09T01:44:00.431Z,7.25
2024-05-09T01:45:00.251Z,7.30
2024-05-09T01:46:00.245Z,7.35
2024-05-09T01:47:00.291Z,7.27
2024-05-09T01:48:00.665Z,7.34
2024-05-09T01:49:00.320Z,7.25
2024-05-09T01:50:00.307Z,7.25
2024-05-09T01:51:00.268Z,7.34
2024-05-09T01:52:00.191Z,7.28
2024-05-09T01:53:00.196Z,7.27
2024-05-09T01:54:00.161Z,7.27
2024-05-09T01:55:02.811Z,7.24
2024-05-09T01:56:00.202Z,7.16
2024-05-09T01:57:00.137Z,7.17
2024-05-09T01:58:00.120Z,7.17
2024-05-09T01:59:00.105Z,7.12
2024-05-09T02:00:00.112Z,7.07
2024-05-09T02:01:00.186Z,7.12
2024-05-09T02:02:00.259Z,7.07
2024-05-09T02:03:00.214Z,7.06
2024-05-09T02:04:00.292Z,6.98
2024-05-09T02:05:00.253Z,6.92
2024-05-09T02:06:00.103Z,6.94
2024-05-09T02:07:00.044Z,6.97
2024-05-09T02:08:00.077Z,6.88
2024-05-09T02:08:59.987Z,6.81
2024-05-09T02:10:00.009Z,6.81
2024-05-09T02:11:00.056Z,6.87
2024-05-09T02:12:00.141Z,6.71
2024-05-09T02:12:59.993Z,6.81
2024-05-09T02:13:59.973Z,6.71
2024-05-09T02:14:59.959Z,6.76
2024-05-09T02:15:59.915Z,6.80
2024-05-09T02:16:59.999Z,6.73
2024-05-09T02:18:00.008Z,6.69
2024-05-09T02:19:00.019Z,6.70
2024-05-09T02:19:59.915Z,6.69
2024-05-09T02:20:59.952Z,6.61
2024-05-09T02:21:59.855Z,6.62
2024-05-09T02:22:59.872Z,6.61
2024-05-09T02:23:59.850Z,6.62
2024-05-09T02:24:59.830Z,6.67
2024-05-09T02:25:59.841Z,6.52
2024-05-09T02:26:59.810Z,6.54
2024-05-09T02:27:59.833Z,6.56
2024-05-09T02:28:59.828Z,6.48
2024-05-09T02:29:59.773Z,6.49
2024-05-09T02:30:59.755Z,6.46
2024-05-09T02:31:59.838Z,6.38
2024-05-09T02:32:59.858Z,6.38
2024-05-09T02:33:59.866Z,6.44
2024-05-09T02:34:59.754Z,6.37
2024-05-09T02:35:59.702Z,6.33
2024-05-09T02:36:59.692Z,6.31
2024-05-09T02:38:00.044Z,6.28
2024-05-09T02:38:59.696Z,6.27
2024-05-09T02:39:59.660Z,6.25
2024-05-09T02:40:59.687Z,6.22
2024-05-09T02:41:59.641Z,6.21
2024-05-09T02:42:59.644Z,6.25
2024-05-09T02:43:59.660Z,6.17
2024-05-09T02:44:59.603Z,6.14
2024-05-09T02:45:59.600Z,6.17
2024-05-09T02:46:59.606Z,6.09
2024-05-09T02:47:59.934Z,6.15
2024-05-09T02:48:59.620Z,6.14
2024-05-09T02:49:59.619Z,6.09
2024-05-09T02:50:59.679Z,6.08
2024-05-09T02:51:59.549Z,6.06
2024-05-09T02:52:59.616Z,6.09
2024-05-09T02:53:59.512Z,6.03
2024-05-09T02:54:59.495Z,5.97
2024-05-09T02:55:59.589Z,5.97
2024-05-09T02:56:59.492Z,5.97
2024-05-09T02:57:59.577Z,5.93
2024-05-09T02:58:59.548Z,5.96
2024-05-09T02:59:59.446Z,5.96
2024-05-09T03:00:59.481Z,5.90
2024-05-09T03:01:59.587Z,5.93
2024-05-09T03:02:59.573Z,5.90
2024-05-09T03:03:59.605Z,5.86
2024-05-09T03:04:59.479Z,5.86
2024-05-09T03:05:59.395Z,5.81
2024-05-09T03:06:59.369Z,5.82
2024-05-09T03:07:59.521Z,5.82
2024-05-09T03:08:59.349Z,5.79
2024-05-09T03:09:59.342Z,5.76
2024-05-09T03:10:59.380Z,5.78
2024-05-09T03:11:59.448Z,5.76
2024-05-09T03:12:59.311Z,5.76
2024-05-09T03:13:59.360Z,5.75
2024-05-09T03:14:59.293Z,5.75
2024-05-09T03:15:59.316Z,5.74
2024-05-09T03:16:59.290Z,5.72
2024-05-09T03:17:59.361Z,5.68
2024-05-09T03:18:59.296Z,5.71
2024-05-09T03:19:59.283Z,5.71
2024-05-09T03:20:59.273Z,5.72
2024-05-09T03:21:59.217Z,5.67
2024-05-09T03:22:59.240Z,5.65
2024-05-09T03:23:59.209Z,5.72
2024-05-09T03:24:59.200Z,5.68
2024-05-09T03:25:59.180Z,5.71
2024-05-09T03:26:59.166Z,5.68
2024-05-09T03:27:59.218Z,5.72
2024-05-09T03:28:59.238Z,5.68
2024-05-09T03:29:59.132Z,5.67
2024-05-09T03:30:59.126Z,5.71
2024-05-09T03:31:59.160Z,5.65
2024-05-09T03:32:59.235Z,5.68
2024-05-09T03:33:59.237Z,5.64
2024-05-09T03:34:59.096Z,5.65
2024-05-09T03:35:59.055Z,5.67
2024-05-09T03:36:59.081Z,5.65
2024-05-09T03:37:59.086Z,5.64
2024-05-09T03:38:59.043Z,5.64
2024-05-09T03:39:59.021Z,5.63
2024-05-09T03:40:59.051Z,5.63
2024-05-09T03:41:58.997Z,5.64
2024-05-09T03:42:59.089Z,5.67
2024-05-09T03:43:59.089Z,5.68
2024-05-09T03:44:58.973Z,5.68
2024-05-09T03:45:58.948Z,5.67
2024-05-09T03:46:58.992Z,5.67
2024-05-09T03:47:59.174Z,5.71
2024-05-09T03:48:58.953Z,5.68
2024-05-09T03:49:58.944Z,5.72
2024-05-09T03:50:58.951Z,5.74
2024-05-09T03:51:58.887Z,5.74
2024-05-09T03:52:58.938Z,5.71
2024-05-09T03:53:58.865Z,5.75
2024-05-09T03:54:58.860Z,5.74
2024-05-09T03:55:58.933Z,5.79
2024-05-09T03:56:58.845Z,5.78
2024-05-09T03:57:59.025Z,5.79
2024-05-09T03:58:58.875Z,5.78
2024-05-09T03:59:58.804Z,5.78
2024-05-09T04:00:58.872Z,5.78
2024-05-09T04:01:58.948Z,5.85
2024-05-09T04:02:58.994Z,5.78
2024-05-09T04:03:58.846Z,5.85
2024-05-09T04:04:58.801Z,5.83
2024-05-09T04:05:58.752Z,5.93
2024-05-09T04:06:58.746Z,5.85
2024-05-09T04:07:58.792Z,5.89
2024-05-09T04:08:58.704Z,5.93
2024-05-09T04:09:58.693Z,5.99
2024-05-09T04:10:58.768Z,5.96
2024-05-09T04:11:58.837Z,5.97
2024-05-09T04:12:58.667Z,6.04
2024-05-09T04:13:58.721Z,6.08
2024-05-09T04:14:58.654Z,6.12
2024-05-09T04:15:58.648Z,6.14
2024-05-09T04:16:58.638Z,6.14
2024-05-09T04:17:58.859Z,6.17
2024-05-09T04:18:58.649Z,6.18
2024-05-09T04:19:58.638Z,6.27
2024-05-09T04:20:58.616Z,6.30
2024-05-09T04:21:58.565Z,6.31
2024-05-09T04:22:58.608Z,6.40
2024-05-09T04:23:58.541Z,6.38
2024-05-09T04:24:58.547Z,6.38
2024-05-09T04:25:58.574Z,6.48
2024-05-09T04:26:58.510Z,6.51
2024-05-09T04:27:58.558Z,6.61
2024-05-09T04:28:58.541Z,6.64
2024-05-09T04:29:58.491Z,6.62
2024-05-09T04:30:58.470Z,6.64
2024-05-09T04:31:58.555Z,6.73
2024-05-09T04:32:58.651Z,6.73
2024-05-09T04:33:58.638Z,6.74
2024-05-09T04:34:58.499Z,6.77
2024-05-09T04:35:58.411Z,6.88
2024-05-09T04:36:58.435Z,6.91
2024-05-09T04:37:58.434Z,6.97
2024-05-09T04:38:58.393Z,7.02
2024-05-09T04:39:58.372Z,7.07
2024-05-09T04:40:58.422Z,7.17
2024-05-09T04:41:58.346Z,7.15
2024-05-09T04:42:58.373Z,7.23
2024-05-09T04:43:58.449Z,7.31
2024-05-09T04:44:58.844Z,7.39
2024-05-09T04:45:58.314Z,7.37
2024-05-09T04:46:58.332Z,7.42
2024-05-09T04:47:58.718Z,7.49
2024-05-09T04:48:58.360Z,7.64
2024-05-09T04:49:58.319Z,7.63
2024-05-09T04:50:58.310Z,7.64
2024-05-09T04:51:58.241Z,7.80
2024-05-09T04:52:58.295Z,7.90
2024-05-09T04:53:58.213Z,7.92
2024-05-09T04:54:59.040Z,8.07
2024-05-09T04:55:58.271Z,8.19
2024-05-09T04:56:58.199Z,8.25
2024-05-09T04:57:58.242Z,8.28
2024-05-09T04:58:58.195Z,8.38
2024-05-09T04:59:58.149Z,8.45
2024-05-09T05:00:58.190Z,8.55
2024-05-09T05:01:58.345Z,8.63
2024-05-09T05:02:58.276Z,8.71
2024-05-09T05:03:58.351Z,8.81
2024-05-09T05:04:58.210Z,8.83
2024-05-09T05:05:58.307Z,8.91
2024-05-09T05:07:01.362Z,8.92
2024-05-09T05:07:58.097Z,9.04
2024-05-09T05:08:58.060Z,9.02
2024-05-09T05:09:58.042Z,9.11
2024-05-09T05:10:58.165Z,9.14
2024-05-09T05:11:58.144Z,9.23
2024-05-09T05:12:58.016Z,9.18
2024-05-09T05:13:58.060Z,9.21
2024-05-09T05:14:58.000Z,9.21
2024-05-09T05:15:58.538Z,9.29
2024-05-09T05:16:58.036Z,9.26
2024-05-09T05:17:58.125Z,9.32
2024-05-09T05:18:57.985Z,9.33
2024-05-09T05:19:58.060Z,9.38
2024-05-09T05:20:58.116Z,9.40
2024-05-09T05:21:57.932Z,9.46
2024-05-09T05:22:57.977Z,9.48
2024-05-09T05:23:57.898Z,9.51
2024-05-09T05:24:57.891Z,9.51
2024-05-09T05:25:57.961Z,9.56
2024-05-09T05:26:57.869Z,9.58
2024-05-09T05:27:57.861Z,9.58
2024-05-09T05:28:57.866Z,9.66
2024-05-09T05:29:57.846Z,9.60
2024-05-09T05:30:57.920Z,9.71
2024-05-09T05:31:57.957Z,9.69
2024-05-09T05:32:57.950Z,9.72
2024-05-09T05:33:57.855Z,9.75
2024-05-09T05:34:57.832Z,9.76
2024-05-09T05:35:57.778Z,9.78
2024-05-09T05:36:57.758Z,9.87
2024-05-09T05:37:57.815Z,9.89
2024-05-09T05:38:57.769Z,9.90
2024-05-09T05:39:57.736Z,9.97
2024-05-09T05:40:57.749Z,9.97
2024-05-09T05:41:57.703Z,10.02
2024-05-09T05:42:57.697Z,9.99
2024-05-09T05:43:57.718Z,10.05
2024-05-09T05:44:57.694Z,10.09
2024-05-09T05:45:57.660Z,10.14
2024-05-09T05:46:57.688Z,10.14
2024-05-09T05:47:57.903Z,10.20
2024-05-09T05:48:57.716Z,10.22
2024-05-09T05:49:57.686Z,10.22
2024-05-09T05:50:58.958Z,10.25
2024-05-09T05:51:57.592Z,10.25
2024-05-09T05:52:57.628Z,10.33
2024-05-09T05:53:57.594Z,10.36
2024-05-09T05:54:57.568Z,10.40
2024-05-09T05:55:57.593Z,10.42
2024-05-09T05:56:57.552Z,10.55
2024-05-09T05:57:57.551Z,10.55
2024-05-09T05:58:57.578Z,10.59
2024-05-09T05:59:57.511Z,10.64
2024-05-09T06:00:57.521Z,10.64
2024-05-09T06:01:57.541Z,10.64
2024-05-09T06:02:57.587Z,10.71
2024-05-09T06:03:57.503Z,10.73
2024-05-09T06:04:57.590Z,10.78
2024-05-09T06:05:57.554Z,10.79
2024-05-09T06:06:57.432Z,10.84
2024-05-09T06:07:57.499Z,10.86
2024-05-09T06:08:57.473Z,10.86
2024-05-09T06:09:57.399Z,10.92
2024-05-09T06:10:57.497Z,10.96
2024-05-09T06:11:57.479Z,10.97
2024-05-09T06:12:57.406Z,10.99
2024-05-09T06:13:57.408Z,11.03
2024-05-09T06:14:57.354Z,11.02
2024-05-09T06:15:57.333Z,11.07
2024-05-09T06:16:58.309Z,11.15
2024-05-09T06:17:57.556Z,11.14
2024-05-09T06:18:57.421Z,11.17
2024-05-09T06:19:57.345Z,11.24
2024-05-09T06:20:57.393Z,11.22
2024-05-09T06:21:57.276Z,11.27
2024-05-09T06:22:57.275Z,11.29
2024-05-09T06:23:57.257Z,11.33
2024-05-09T06:24:57.239Z,11.35
2024-05-09T06:25:57.305Z,11.42
2024-05-09T06:26:57.237Z,11.43
2024-05-09T06:27:57.213Z,11.54
2024-05-09T06:28:57.231Z,11.51
2024-05-09T06:29:57.183Z,11.58
2024-05-09T06:30:57.207Z,11.60
2024-05-09T06:31:59.916Z,11.60
2024-05-09T06:32:57.370Z,11.65
2024-05-09T06:33:57.223Z,11.65
2024-05-09T06:34:57.165Z,11.67
2024-05-09T06:35:57.142Z,11.65
2024-05-09T06:36:57.108Z,11.65
2024-05-09T06:37:57.124Z,11.65
2024-05-09T06:38:57.099Z,11.69
2024-05-09T06:39:57.086Z,11.69
2024-05-09T06:40:57.183Z,11.79
2024-05-09T06:41:57.054Z,11.85
2024-05-09T06:42:57.043Z,11.91
2024-05-09T06:43:57.083Z,11.91
2024-05-09T06:44:57.040Z,11.95
2024-05-09T06:45:57.014Z,11.99
2024-05-09T06:46:59.770Z,12.02
2024-05-09T06:47:57.190Z,12.05
2024-05-09T06:48:57.126Z,12.13
2024-05-09T06:49:57.001Z,12.16
2024-05-09T06:50:56.992Z,12.20
2024-05-09T06:51:56.940Z,12.24
2024-05-09T06:52:56.961Z,12.27
2024-05-09T06:53:56.931Z,12.31
2024-05-09T06:54:56.930Z,12.39
2024-05-09T06:55:56.904Z,12.45
2024-05-09T06:56:56.890Z,12.50
2024-05-09T06:57:56.889Z,12.50
2024-05-09T06:58:56.917Z,12.53
2024-05-09T06:59:56.907Z,12.54
2024-05-09T07:00:56.895Z,12.56
2024-05-09T07:01:56.851Z,12.59
2024-05-09T07:02:57.651Z,12.59
2024-05-09T07:03:56.905Z,12.62
2024-05-09T07:04:57.016Z,12.68
2024-05-09T07:05:56.855Z,12.71
2024-05-09T07:06:56.781Z,12.77
2024-05-09T07:07:56.813Z,12.83
2024-05-09T07:08:56.773Z,12.90
2024-05-09T07:09:56.759Z,12.92
2024-05-09T07:10:56.799Z,12.92
2024-05-09T07:11:56.810Z,12.93
2024-05-09T07:12:56.790Z,13.01
2024-05-09T07:13:56.741Z,13.03
2024-05-09T07:14:56.697Z,13.10
2024-05-09T07:15:56.678Z,13.15
2024-05-09T07:16:56.837Z,13.15
2024-05-09T07:17:57.074Z,13.20
2024-05-09T07:18:57.027Z,13.25
2024-05-09T07:19:56.650Z,13.22
2024-05-09T07:20:56.659Z,13.26
2024-05-09T07:21:56.643Z,13.30
2024-05-09T07:22:56.668Z,13.33
2024-05-09T07:23:56.634Z,13.45
2024-05-09T07:24:56.594Z,13.45
2024-05-09T07:25:56.618Z,13.45
2024-05-09T07:26:56.574Z,13.51
2024-05-09T07:27:56.558Z,13.49
2024-05-09T07:28:56.594Z,13.46
2024-05-09T07:29:56.530Z,13.49
2024-05-09T07:30:56.520Z,13.51
2024-05-09T07:31:56.589Z,13.52
2024-05-09T07:32:56.708Z,13.55
2024-05-09T07:33:56.600Z,13.59
2024-05-09T07:34:56.505Z,13.66
2024-05-09T07:35:56.480Z,13.73
2024-05-09T07:36:56.503Z,13.79
2024-05-09T07:37:56.517Z,13.84
2024-05-09T07:38:56.443Z,13.85
2024-05-09T07:39:56.427Z,13.88
2024-05-09T07:40:56.442Z,13.88
2024-05-09T07:41:56.407Z,13.91
2024-05-09T07:42:56.393Z,13.99
2024-05-09T07:43:56.469Z,14.03
2024-05-09T07:44:58.733Z,14.03
2024-05-09T07:45:58.393Z,14.07
2024-05-09T07:48:14.015Z,14.07
2024-05-09T07:51:32.678Z,14.07
2024-05-09T07:53:37.340Z,14.10
2024-05-09T07:53:51.943Z,14.07
2024-05-09T07:54:24.071Z,14.14
2024-05-09T07:55:23.995Z,14.15
2024-05-09T07:56:24.682Z,14.15
2024-05-09T07:57:23.908Z,14.21
2024-05-09T07:58:23.838Z,14.22
2024-05-09T07:59:23.846Z,14.28
2024-05-09T08:00:30.827Z,14.36
2024-05-09T08:01:23.926Z,14.29
2024-05-09T08:02:23.939Z,14.33
2024-05-09T08:03:24.157Z,14.37
2024-05-09T08:04:26.510Z,14.35
2024-05-09T08:05:23.899Z,14.39
2024-05-09T08:06:23.756Z,14.39
2024-05-09T08:07:23.819Z,14.42
2024-05-09T08:08:23.752Z,14.47
2024-05-09T08:09:23.740Z,14.51
2024-05-09T08:10:28.549Z,14.55
2024-05-09T08:11:23.867Z,14.58
2024-05-09T08:12:23.692Z,14.58
2024-05-09T08:13:23.766Z,14.65
2024-05-09T08:14:23.665Z,14.68
2024-05-09T08:15:23.652Z,14.64
2024-05-09T08:16:23.975Z,14.68
2024-05-09T08:17:23.908Z,14.68
2024-05-09T08:18:23.775Z,14.70
2024-05-09T08:19:23.639Z,14.77
2024-05-09T08:20:30.949Z,14.78
2024-05-09T08:21:23.594Z,14.78
2024-05-09T08:22:23.584Z,14.78
2024-05-09T08:23:23.587Z,14.78
2024-05-09T08:24:23.577Z,14.83
2024-05-09T08:25:23.600Z,14.89
2024-05-09T08:26:23.529Z,14.92
2024-05-09T08:27:23.534Z,15.01
2024-05-09T08:28:23.541Z,15.03
2024-05-09T08:29:23.536Z,15.10
2024-05-09T08:30:30.120Z,15.14
2024-05-09T08:31:23.646Z,15.21
2024-05-09T08:32:23.603Z,15.21
2024-05-09T08:33:23.601Z,15.21
2024-05-09T08:34:23.609Z,15.21
2024-05-09T08:35:23.438Z,15.21
2024-05-09T08:36:23.443Z,15.25
2024-05-09T08:37:26.234Z,15.25
2024-05-09T08:38:23.397Z,15.25
2024-05-09T08:39:23.423Z,15.28
2024-05-09T08:40:30.748Z,15.32
2024-05-09T08:41:23.386Z,15.36
2024-05-09T08:42:23.371Z,15.41
2024-05-09T08:43:23.654Z,15.44
2024-05-09T08:44:23.328Z,15.44
2024-05-09T08:45:23.356Z,15.46
2024-05-09T08:46:23.418Z,15.41
2024-05-09T08:47:23.417Z,15.43
2024-05-09T08:48:23.533Z,15.46
2024-05-09T08:49:23.467Z,15.57
2024-05-09T08:50:32.067Z,15.62
2024-05-09T08:51:23.282Z,15.69
2024-05-09T08:52:23.255Z,15.69
2024-05-09T08:53:23.274Z,15.78
2024-05-09T08:54:23.235Z,15.75
2024-05-09T08:55:23.231Z,15.78
2024-05-09T08:56:23.211Z,15.75
2024-05-09T08:57:23.206Z,15.74
2024-05-09T08:58:23.191Z,15.72
2024-05-09T08:59:23.199Z,15.80
2024-05-09T09:00:33.455Z,15.86
2024-05-09T09:01:23.229Z,15.90
2024-05-09T09:02:23.365Z,15.96
2024-05-09T09:03:23.184Z,15.96
2024-05-09T09:04:23.316Z,16.00
2024-05-09T09:05:23.272Z,15.97
2024-05-09T09:06:23.108Z,16.07
2024-05-09T09:07:23.212Z,16.09
2024-05-09T09:08:23.072Z,16.14
2024-05-09T09:09:23.082Z,16.20
2024-05-09T09:10:29.717Z,16.25
2024-05-09T09:11:23.092Z,16.27
2024-05-09T09:12:23.026Z,16.28
2024-05-09T09:13:23.068Z,16.30
2024-05-09T09:14:23.027Z,16.31
2024-05-09T09:15:22.997Z,16.31
2024-05-09T09:16:23.293Z,16.28
2024-05-09T09:17:23.230Z,16.33
2024-05-09T09:18:23.038Z,16.38
2024-05-09T09:19:23.268Z,16.42
2024-05-09T09:20:28.715Z,16.46
2024-05-09T09:21:22.944Z,16.50
2024-05-09T09:22:22.918Z,16.60
2024-05-09T09:23:22.948Z,16.66
2024-05-09T09:24:22.901Z,16.70
2024-05-09T09:25:22.895Z,16.76
2024-05-09T09:26:22.875Z,16.83
2024-05-09T09:27:22.922Z,16.88
2024-05-09T09:28:22.970Z,16.91
2024-05-09T09:29:22.845Z,16.93
2024-05-09T09:30:34.053Z,16.98
2024-05-09T09:31:22.916Z,17.01
2024-05-09T09:32:22.891Z,16.97
2024-05-09T09:33:23.033Z,17.04
2024-05-09T09:34:22.997Z,17.04
2024-05-09T09:35:22.947Z,17.03
2024-05-09T09:36:22.763Z,17.03
2024-05-09T09:37:22.797Z,17.01
2024-05-09T09:38:22.823Z,16.94
2024-05-09T09:39:22.757Z,16.98
2024-05-09T09:40:30.984Z,16.96
2024-05-09T09:41:22.751Z,16.98
2024-05-09T09:42:22.768Z,16.98
2024-05-09T09:43:23.105Z,17.04
2024-05-09T09:44:22.677Z,17.03
2024-05-09T09:45:22.850Z,17.03
2024-05-09T09:46:22.784Z,17.03
2024-05-09T09:47:22.775Z,17.06
2024-05-09T09:48:23.223Z,17.11
2024-05-09T09:49:22.719Z,17.07
2024-05-09T09:50:27.959Z,17.04
2024-05-09T09:51:22.634Z,17.12
2024-05-09T09:52:22.666Z,17.14
2024-05-09T09:53:22.633Z,17.16
2024-05-09T09:54:22.567Z,17.16
2024-05-09T09:55:22.773Z,17.19
2024-05-09T09:56:22.559Z,17.25
2024-05-09T09:57:22.544Z,17.28
2024-05-09T09:58:22.596Z,17.40
2024-05-09T09:59:22.544Z,17.46
2024-05-09T10:00:27.423Z,17.59
2024-05-09T10:01:22.645Z,17.68
2024-05-09T10:02:22.716Z,17.79
2024-05-09T10:03:22.618Z,17.87
2024-05-09T10:04:22.572Z,17.86
2024-05-09T10:05:22.662Z,17.82
2024-05-09T10:06:22.453Z,17.79
2024-05-09T10:07:22.503Z,17.81
2024-05-09T10:08:22.416Z,17.78
2024-05-09T10:09:22.433Z,17.81
2024-05-09T10:10:29.944Z,17.86
2024-05-09T10:11:22.501Z,17.95
2024-05-09T10:12:22.439Z,17.97
2024-05-09T10:13:22.467Z,18.05
2024-05-09T10:14:22.380Z,18.10
2024-05-09T10:15:22.342Z,18.08
2024-05-09T10:16:22.448Z,18.08
2024-05-09T10:17:22.351Z,18.07
2024-05-09T10:18:22.344Z,18.15
2024-05-09T10:19:22.379Z,18.14
2024-05-09T10:20:27.912Z,18.17
2024-05-09T10:21:22.287Z,18.26
2024-05-09T10:22:22.309Z,18.32
2024-05-09T10:23:22.271Z,18.42
2024-05-09T10:24:22.258Z,18.51
2024-05-09T10:25:22.480Z,18.57
2024-05-09T10:26:22.224Z,18.52
2024-05-09T10:27:22.235Z,18.54
2024-05-09T10:28:22.289Z,18.52
2024-05-09T10:29:22.210Z,18.62
2024-05-09T10:30:29.712Z,18.57
2024-05-09T10:31:22.230Z,18.55
2024-05-09T10:32:22.291Z,18.54
2024-05-09T10:33:22.281Z,18.54
2024-05-09T10:34:22.415Z,18.52
2024-05-09T10:35:22.135Z,18.54
2024-05-09T10:36:22.138Z,18.58
2024-05-09T10:37:22.271Z,18.62
2024-05-09T10:38:22.119Z,18.65
2024-05-09T10:39:22.084Z,18.63
2024-05-09T10:40:26.621Z,18.67
2024-05-09T10:41:22.107Z,18.72
2024-05-09T10:42:22.071Z,18.73
2024-05-09T10:43:22.216Z,18.78
2024-05-09T10:44:22.032Z,18.84
2024-05-09T10:45:22.018Z,18.98
2024-05-09T10:46:22.102Z,19.06
2024-05-09T10:47:22.062Z,19.16
2024-05-09T10:48:22.094Z,19.22
2024-05-09T10:49:22.112Z,19.28
2024-05-09T10:50:28.353Z,19.37
2024-05-09T10:51:22.026Z,19.36
2024-05-09T10:52:22.017Z,19.43
2024-05-09T10:53:21.924Z,19.47
2024-05-09T10:54:21.957Z,19.54
2024-05-09T10:55:22.227Z,19.63
2024-05-09T10:56:21.912Z,19.69
2024-05-09T10:57:21.914Z,19.74
2024-05-09T10:58:21.912Z,19.76
2024-05-09T10:59:21.868Z,19.83
2024-05-09T11:00:27.791Z,19.78
2024-05-09T11:01:21.943Z,19.83
2024-05-09T11:02:21.982Z,19.80
2024-05-09T11:03:21.866Z,19.87
2024-05-09T11:04:21.935Z,19.84
2024-05-09T11:05:21.996Z,19.84
2024-05-09T11:06:21.792Z,19.81
2024-05-09T11:07:21.868Z,19.88
2024-05-09T11:08:21.772Z,19.92
2024-05-09T11:09:21.766Z,19.88
2024-05-09T11:10:27.760Z,19.95
2024-05-09T11:11:21.823Z,19.99
2024-05-09T11:12:23.649Z,20.08
2024-05-09T11:13:21.730Z,20.10
2024-05-09T11:14:21.697Z,20.13
2024-05-09T11:15:21.726Z,20.21
2024-05-09T11:16:21.905Z,20.23
2024-05-09T11:17:21.745Z,20.31
2024-05-09T11:18:24.957Z,20.41
2024-05-09T11:19:21.831Z,20.47
2024-05-09T11:20:29.098Z,20.55
2024-05-09T11:21:21.661Z,20.64
2024-05-09T11:22:21.697Z,20.70
2024-05-09T11:23:21.605Z,20.74
2024-05-09T11:24:21.600Z,20.79
2024-05-09T11:25:21.638Z,20.73
2024-05-09T11:26:21.670Z,20.66
2024-05-09T11:27:21.563Z,20.61
2024-05-09T11:28:21.647Z,20.61
2024-05-09T11:29:21.551Z,20.48
2024-05-09T11:30:29.529Z,20.36
2024-05-09T11:31:21.889Z,20.32
2024-05-09T11:32:21.530Z,20.26
2024-05-09T11:33:21.581Z,20.29
2024-05-09T11:34:21.547Z,20.35
2024-05-09T11:35:21.481Z,20.41
2024-05-09T11:36:21.472Z,20.50
2024-05-09T11:37:21.570Z,20.58
2024-05-09T11:38:21.462Z,20.66
2024-05-09T11:39:21.457Z,20.70
2024-05-09T11:40:25.692Z,20.70
2024-05-09T11:41:21.418Z,20.80
2024-05-09T11:42:21.404Z,20.82
2024-05-09T11:43:21.534Z,20.79
2024-05-09T11:44:21.379Z,20.73
2024-05-09T11:45:21.386Z,20.69
2024-05-09T11:46:21.538Z,20.67
2024-05-09T11:47:21.436Z,20.70
2024-05-09T11:48:21.551Z,20.80
2024-05-09T11:49:23.879Z,20.88
2024-05-09T11:50:27.223Z,21.01
2024-05-09T11:51:21.308Z,20.92
2024-05-09T11:52:21.337Z,20.94
2024-05-09T11:53:21.302Z,20.95
2024-05-09T11:54:21.259Z,20.97
2024-05-09T11:55:23.209Z,21.03
2024-05-09T11:56:21.260Z,21.10
2024-05-09T11:57:21.284Z,21.16
2024-05-09T11:58:21.480Z,21.27
2024-05-09T11:59:21.211Z,21.32
2024-05-09T12:00:29.477Z,21.50
2024-05-09T12:01:22.149Z,21.67
2024-05-09T12:02:21.304Z,21.82
2024-05-09T12:03:21.241Z,21.91
2024-05-09T12:04:21.332Z,21.84
2024-05-09T12:05:21.384Z,21.86
2024-05-09T12:06:21.155Z,21.98
2024-05-09T12:07:21.211Z,21.92
2024-05-09T12:08:21.129Z,22.02
2024-05-09T12:09:21.130Z,21.99
2024-05-09T12:10:26.070Z,22.06
2024-05-09T12:11:21.197Z,22.00
2024-05-09T12:12:21.083Z,21.99
2024-05-09T12:13:21.175Z,21.90
2024-05-09T12:14:21.066Z,22.00
2024-05-09T12:15:21.057Z,22.10
2024-05-09T12:16:21.211Z,22.22
2024-05-09T12:17:21.172Z,22.35
2024-05-09T12:18:21.051Z,22.31
2024-05-09T12:19:21.026Z,22.40
2024-05-09T12:20:28.654Z,22.52
2024-05-09T12:21:20.971Z,22.68
2024-05-09T12:22:21.111Z,22.79
2024-05-09T12:23:20.961Z,22.82
2024-05-09T12:24:20.955Z,22.90
2024-05-09T12:25:20.997Z,23.01
2024-05-09T12:26:20.941Z,23.10
2024-05-09T12:27:20.905Z,23.15
2024-05-09T12:28:20.950Z,23.16
2024-05-09T12:29:20.911Z,23.13
2024-05-09T12:30:32.236Z,23.13
2024-05-09T12:31:20.909Z,23.20
2024-05-09T12:32:20.891Z,23.20
2024-05-09T12:33:21.249Z,23.32
2024-05-09T12:34:20.964Z,23.43
2024-05-09T12:35:20.839Z,23.48
2024-05-09T12:36:20.818Z,23.54
2024-05-09T12:37:20.860Z,23.60
2024-05-09T12:38:20.815Z,23.47
2024-05-09T12:39:20.793Z,23.01
2024-05-09T12:40:26.878Z,23.00
2024-05-09T12:41:20.763Z,23.02
2024-05-09T12:42:27.211Z,23.04
2024-05-09T12:43:20.815Z,23.01
2024-05-09T12:44:20.736Z,23.12
2024-05-09T12:45:20.708Z,23.02
2024-05-09T12:46:20.782Z,22.97
2024-05-09T12:47:20.755Z,22.98
2024-05-09T12:48:20.809Z,23.09
2024-05-09T12:49:21.001Z,23.27
2024-05-09T12:50:29.160Z,23.47
2024-05-09T12:51:20.651Z,23.61
2024-05-09T12:52:20.703Z,23.87
2024-05-09T12:53:20.649Z,23.95
2024-05-09T12:54:20.627Z,24.09
2024-05-09T12:55:20.663Z,24.12
2024-05-09T12:56:20.605Z,24.09
2024-05-09T12:57:20.604Z,24.08
2024-05-09T12:58:20.639Z,24.08
2024-05-09T12:59:20.570Z,24.12
2024-05-09T13:00:27.691Z,24.18
2024-05-09T13:01:20.765Z,24.22
2024-05-09T13:02:20.721Z,24.25
2024-05-09T13:03:20.682Z,24.31
2024-05-09T13:04:20.719Z,24.42
2024-05-09T13:05:20.698Z,24.52
2024-05-09T13:06:20.524Z,24.50